Terminal Aerodrome Forecast
Issued by NWS

Home | Current Version | Previous Version | Text Only | Print | Product List | Glossary On
Versions: 1 2 3 4 5 6 7 8 9 10 11 12 13
000
FTUS42 TJSJ 221743
TAFJPS
TAF
TJPS 221743Z 2218/2318 16016KT P6SM VCTS SCT035CB SCT060 SCT090
      TEMPO 2218/2220 5SM +SHRA BKN035
     FM222100 09008KT P6SM SCT025 SCT050
     FM231300 14010KT P6SM FEW035
      AMD NOT SKED TIL 230300=

USA.gov is the U.S. government's official web portal to all federal, state and local government web resources and services.